Time,TemperatureF,DewpointF,PressureIn,WindDirection,WindDirectionDegrees,WindSpeedMPH,WindSpeedGustMPH,Humidity,HourlyPrecipIn,Conditions,Clouds,dailyrainin,SoftwareType,DateUTC
2013-10-31 00:13:00,63.0,62.0,29.82,SSW,208,9.0,22.0,97,0.11,,,0.79,,2013-10-31 05:13:00,
2013-10-31 00:23:00,63.0,62.0,29.80,South,182,10.0,24.0,97,0.14,,,0.84,,2013-10-31 05:23:00,
2013-10-31 00:43:00,63.0,62.0,29.80,SW,217,13.0,21.0,97,0.18,,,0.88,,2013-10-31 05:43:00,
2013-10-31 00:52:00,62.0,61.0,29.79,SSW,192,14.0,26.0,95,0.19,,,0.91,,2013-10-31 05:52:00,
2013-10-31 01:12:00,62.0,61.0,29.79,SSW,211,12.0,25.0,95,0.14,,,0.93,,2013-10-31 06:12:00,
2013-10-31 01:22:00,62.0,61.0,29.78,South,174,9.0,20.0,96,0.11,,,0.95,,2013-10-31 06:22:00,
2013-10-31 01:42:00,62.0,61.0,29.77,South,182,8.0,17.0,96,0.08,,,0.96,,2013-10-31 06:42:00,
2013-10-31 01:53:00,62.0,61.0,29.76,SE,132,8.0,18.0,96,0.06,,,0.97,,2013-10-31 06:53:00,
2013-10-31 02:11:00,62.0,61.0,29.75,SSW,203,10.0,17.0,96,0.04,,,0.97,,2013-10-31 07:11:00,
2013-10-31 02:21:00,63.0,62.0,29.75,South,184,8.0,17.0,96,0.02,,,0.97,,2013-10-31 07:21:00,
2013-10-31 02:42:00,63.0,62.0,29.74,WSW,238,11.0,19.0,96,0.01,,,0.97,,2013-10-31 07:42:00,
2013-10-31 02:52:00,63.0,62.0,29.73,SSW,206,12.0,22.0,96,0.00,,,0.97,,2013-10-31 07:52:00,
2013-10-31 03:12:00,62.0,61.0,29.72,South,178,16.0,26.0,95,0.01,,,0.98,,2013-10-31 08:12:00,
2013-10-31 03:22:00,62.0,61.0,29.72,South,189,14.0,22.0,95,0.03,,,1.00,,2013-10-31 08:22:00,
2013-10-31 03:42:00,62.0,61.0,29.70,SSW,196,10.0,22.0,96,0.05,,,1.02,,2013-10-31 08:42:00,
2013-10-31 03:52:00,62.0,61.0,29.70,South,187,13.0,22.0,96,0.07,,,1.04,,2013-10-31 08:52:00,
2013-10-31 04:11:00,62.0,61.0,29.69,SSW,213,11.0,23.0,96,0.07,,,1.05,,2013-10-31 09:11:00,
2013-10-31 04:22:00,62.0,61.0,29.68,SSW,213,11.0,22.0,96,0.05,,,1.06,,2013-10-31 09:22:00,
2013-10-31 04:43:00,62.0,61.0,29.67,South,184,11.0,22.0,95,0.05,,,1.07,,2013-10-31 09:43:00,
2013-10-31 04:53:00,62.0,61.0,29.66,South,175,8.0,17.0,96,0.03,,,1.07,,2013-10-31 09:53:00,
2013-10-31 05:13:00,62.0,61.0,29.67,SSE,163,10.0,19.0,96,0.02,,,1.07,,2013-10-31 10:13:00,
2013-10-31 05:42:00,61.0,60.0,29.66,SSW,202,8.0,14.0,96,0.00,,,1.07,,2013-10-31 10:42:00,
2013-10-31 05:53:00,61.0,60.0,29.66,SSW,194,8.0,17.0,97,0.01,,,1.08,,2013-10-31 10:53:00,
2013-10-31 06:12:00,61.0,60.0,29.65,South,186,9.0,18.0,97,0.02,,,1.09,,2013-10-31 11:12:00,
2013-10-31 06:21:00,61.0,60.0,29.65,SSE,161,9.0,17.0,97,0.02,,,1.09,,2013-10-31 11:21:00,
2013-10-31 06:42:00,61.0,60.0,29.65,SW,225,9.0,18.0,97,0.02,,,1.09,,2013-10-31 11:42:00,
2013-10-31 06:52:00,61.0,60.0,29.64,SW,215,10.0,18.0,97,0.01,,,1.09,,2013-10-31 11:52:00,
2013-10-31 07:12:00,61.0,60.0,29.63,South,185,8.0,17.0,97,0.01,,,1.10,,2013-10-31 12:12:00,
2013-10-31 07:22:00,61.0,60.0,29.62,SW,218,9.0,17.0,97,0.01,,,1.10,,2013-10-31 12:22:00,
2013-10-31 07:42:00,61.0,60.0,29.62,SW,215,8.0,16.0,97,0.02,,,1.11,,2013-10-31 12:42:00,
2013-10-31 07:52:00,61.0,60.0,29.62,SW,224,10.0,20.0,97,0.03,,,1.12,,2013-10-31 12:52:00,
2013-10-31 08:11:00,61.0,60.0,29.62,SSW,202,9.0,17.0,97,0.04,,,1.13,,2013-10-31 13:11:00,
2013-10-31 08:22:00,61.0,60.0,29.62,SW,220,8.0,14.0,97,0.05,,,1.14,,2013-10-31 13:22:00,
2013-10-31 08:42:00,61.0,60.0,29.61,SSW,200,9.0,15.0,97,0.06,,,1.17,,2013-10-31 13:42:00,
2013-10-31 08:52:00,61.0,60.0,29.60,SW,215,8.0,12.0,97,0.08,,,1.20,,2013-10-31 13:52:00,
2013-10-31 09:11:00,61.0,60.0,29.60,SSW,196,5.0,10.0,97,0.07,,,1.21,,2013-10-31 14:11:00,
2013-10-31 09:21:00,60.0,59.0,29.59,SSW,200,4.0,7.0,98,0.09,,,1.24,,2013-10-31 14:21:00,
2013-10-31 09:42:00,60.0,59.0,29.58,SSW,208,6.0,11.0,98,0.08,,,1.25,,2013-10-31 14:42:00,
2013-10-31 09:52:00,60.0,59.0,29.57,SSW,200,5.0,10.0,98,0.07,,,1.27,,2013-10-31 14:52:00,
2013-10-31 10:11:00,60.0,59.0,29.56,SSW,205,4.0,10.0,98,0.07,,,1.29,,2013-10-31 15:11:00,
2013-10-31 11:23:00,59.0,58.0,29.49,SSW,201,3.0,9.0,98,0.20,,,1.51,,2013-10-31 16:23:00,
2013-10-31 11:53:00,59.0,58.0,29.47,South,169,4.0,8.0,98,0.21,,,1.59,,2013-10-31 16:53:00,
2013-10-31 12:12:00,60.0,59.0,29.46,South,184,8.0,13.0,98,0.18,,,1.63,,2013-10-31 17:12:00,
2013-10-31 12:22:00,60.0,59.0,29.44,SW,215,11.0,19.0,98,0.15,,,1.66,,2013-10-31 17:22:00,
2013-10-31 12:43:00,60.0,59.0,29.41,SSW,200,9.0,25.0,98,0.12,,,1.68,,2013-10-31 17:43:00,
2013-10-31 12:52:00,61.0,60.0,29.41,SSW,209,10.0,20.0,98,0.08,,,1.68,,2013-10-31 17:52:00,
2013-10-31 13:02:00,61.0,60.0,29.41,SSW,209,10.0,20.0,98,0.08,,,1.68,,2013-10-31 18:02:00,
2013-10-31 13:22:00,61.0,60.0,29.38,South,186,9.0,19.0,97,0.02,,,1.68,,2013-10-31 18:22:00,
2013-10-31 13:42:00,61.0,60.0,29.36,SSW,196,13.0,23.0,97,0.00,,,1.68,,2013-10-31 18:42:00,
2013-10-31 13:52:00,61.0,60.0,29.34,SSW,192,13.0,24.0,97,0.00,,,1.68,,2013-10-31 18:52:00,
2013-10-31 14:21:00,62.0,61.0,29.32,SSW,203,12.0,24.0,97,0.01,,,1.69,,2013-10-31 19:21:00,
2013-10-31 14:52:00,62.0,61.0,29.29,South,178,11.0,20.0,97,0.01,,,1.69,,2013-10-31 19:52:00,
2013-10-31 15:02:00,62.0,61.0,29.29,South,178,11.0,20.0,97,0.01,,,1.69,,2013-10-31 20:02:00,
2013-10-31 15:22:00,60.0,58.0,29.31,WNW,299,11.0,31.0,93,0.06,,,1.75,,2013-10-31 20:22:00,
2013-10-31 15:42:00,58.0,57.0,29.30,NW,316,6.0,17.0,95,0.06,,,1.75,,2013-10-31 20:42:00,
2013-10-31 15:52:00,59.0,58.0,29.31,West,279,6.0,11.0,95,0.06,,,1.75,,2013-10-31 20:52:00,
2013-10-31 16:11:00,59.0,58.0,29.31,West,262,3.0,6.0,96,0.06,,,1.75,,2013-10-31 21:11:00,
2013-10-31 16:22:00,59.0,58.0,29.33,WSW,251,6.0,10.0,96,0.00,,,1.75,,2013-10-31 21:22:00,
2013-10-31 16:44:00,59.0,58.0,29.34,West,278,6.0,14.0,96,0.00,,,1.59,,2013-10-31 21:44:00,
2013-10-31 16:54:00,58.0,57.0,29.34,West,277,8.0,12.0,96,0.00,,,1.59,,2013-10-31 21:54:00,
2013-10-31 17:13:00,58.0,56.0,29.32,West,273,6.0,16.0,94,0.00,,,1.59,,2013-10-31 22:13:00,
2013-10-31 17:24:00,58.0,56.0,29.32,NW,304,5.0,13.0,93,0.00,,,1.59,,2013-10-31 22:24:00,
2013-10-31 17:43:00,58.0,56.0,29.33,West,272,5.0,10.0,94,0.00,,,1.33,,2013-10-31 22:43:00,
2013-10-31 17:53:00,58.0,56.0,29.32,WNW,288,4.0,9.0,94,0.00,,,1.33,,2013-10-31 22:53:00,
2013-10-31 18:22:00,56.0,54.0,29.35,West,281,12.0,20.0,93,0.00,,,1.33,,2013-10-31 23:22:00,
2013-10-31 18:43:00,54.0,53.0,29.36,WNW,286,10.0,17.0,95,0.01,,,1.15,,2013-10-31 23:43:00,
2013-10-31 18:53:00,53.0,52.0,29.36,NW,311,9.0,19.0,95,0.02,,,1.17,,2013-10-31 23:53:00,
2013-10-31 19:11:00,53.0,52.0,29.38,NW,312,10.0,18.0,95,0.03,,,1.18,,2013-11-01 00:11:00,
2013-10-31 19:21:00,52.0,50.0,29.40,WNW,286,11.0,22.0,94,0.04,,,1.19,,2013-11-01 00:21:00,
2013-10-31 19:42:00,50.0,49.0,29.39,NW,321,10.0,22.0,95,0.06,,,1.19,,2013-11-01 00:42:00,
2013-10-31 19:52:00,49.0,48.0,29.37,WNW,296,9.0,15.0,95,0.06,,,1.20,,2013-11-01 00:52:00,
2013-10-31 20:12:00,49.0,48.0,29.39,WSW,240,6.0,15.0,95,0.05,,,1.20,,2013-11-01 01:12:00,
2013-10-31 20:22:00,49.0,48.0,29.41,West,271,7.0,13.0,95,0.03,,,1.20,,2013-11-01 01:22:00,
2013-10-31 20:42:00,49.0,48.0,29.40,NW,307,5.0,11.0,95,0.00,,,1.19,,2013-11-01 01:42:00,
2013-10-31 20:52:00,49.0,48.0,29.41,WNW,286,6.0,10.0,95,0.00,,,1.19,,2013-11-01 01:52:00,
2013-10-31 21:11:00,49.0,47.0,29.42,NW,306,7.0,15.0,94,0.00,,,1.19,,2013-11-01 02:11:00,
2013-10-31 21:22:00,48.0,46.0,29.43,West,271,9.0,16.0,94,0.00,,,1.19,,2013-11-01 02:22:00,
2013-10-31 21:42:00,48.0,46.0,29.42,West,272,6.0,13.0,94,0.00,,,1.19,,2013-11-01 02:42:00,
2013-10-31 21:52:00,47.0,45.0,29.45,NW,309,7.0,16.0,93,0.00,,,1.19,,2013-11-01 02:52:00,
2013-10-31 22:12:00,47.0,45.0,29.47,West,279,7.0,13.0,94,0.00,,,1.19,,2013-11-01 03:12:00,
2013-10-31 22:22:00,47.0,45.0,29.47,West,273,8.0,17.0,94,0.00,,,1.19,,2013-11-01 03:22:00,
2013-10-31 22:45:00,47.0,45.0,29.47,West,265,7.0,15.0,94,0.00,,,1.17,,2013-11-01 03:45:00,
2013-10-31 22:54:00,47.0,45.0,29.49,West,272,9.0,16.0,94,0.00,,,1.17,,2013-11-01 03:54:00,
2013-10-31 23:14:00,47.0,45.0,29.50,West,259,13.0,23.0,93,0.00,,,1.17,,2013-11-01 04:14:00,
2013-10-31 23:24:00,47.0,45.0,29.52,West,261,9.0,21.0,92,0.00,,,1.17,,2013-11-01 04:24:00,
2013-10-31 23:54:00,46.0,44.0,29.52,WNW,287,10.0,17.0,92,0.00,,,1.13,,2013-11-01 04:54:00,